Time;durP1;ratioP1;P1;durP2;ratioP2;P2;SDS_P1;SDS_P2;PMS_P1;PMS_P2;Temp;Humidity;BMP_temperature;BMP_pressure;BME280_temperature;BME280_humidity;BME280_pressure;Samples;Min_cycle;Max_cycle;Signal;HPM_P1;HPM_P2
2021/05/02 00:01:26;;;;;;;29.50;19.83;;;;;;;5.46;94.25;100946.88;5004387;28;20054;-80
2021/05/02 00:03:52;;;;;;;25.35;18.15;;;;;;;5.44;94.61;100951.50;5004689;28;20125;-77
2021/05/02 00:06:17;;;;;;;28.00;18.48;;;;;;;5.42;94.29;100951.63;5010055;28;20068;-73
2021/05/02 00:08:43;;;;;;;27.90;19.45;;;;;;;5.40;93.87;100947.41;5005854;28;20072;-81
2021/05/02 00:11:10;;;;;;;26.23;18.65;;;;;;;5.32;94.75;100950.72;5005005;28;20622;-74
2021/05/02 00:13:37;;;;;;;27.33;18.92;;;;;;;5.31;94.28;100956.16;5003465;28;20049;-77
2021/05/02 00:16:04;;;;;;;26.75;19.63;;;;;;;5.28;94.70;100951.91;5004354;28;20041;-79
2021/05/02 00:18:32;;;;;;;26.15;19.65;;;;;;;5.29;93.79;100953.59;5010061;28;20077;-79
2021/05/02 00:20:59;;;;;;;28.60;19.85;;;;;;;5.29;94.20;100963.41;5026206;28;20041;-79
2021/05/02 00:23:24;;;;;;;25.98;18.23;;;;;;;5.25;93.77;100957.50;4984690;28;20390;-76
2021/05/02 00:25:51;;;;;;;25.52;16.65;;;;;;;5.02;96.81;100962.03;5001690;28;20049;-79
2021/05/02 00:28:16;;;;;;;26.58;17.70;;;;;;;5.06;95.86;100962.63;5003998;28;20045;-77
2021/05/02 00:30:44;;;;;;;28.60;19.85;;;;;;;5.11;95.54;100952.44;5002577;28;20043;-78
2021/05/02 00:33:10;;;;;;;25.92;17.50;;;;;;;5.00;96.93;100955.97;5003871;28;20082;-76
2021/05/02 00:35:36;;;;;;;28.58;20.13;;;;;;;5.01;95.88;100965.66;4997024;28;20130;-77
2021/05/02 00:38:02;;;;;;;27.55;19.85;;;;;;;5.05;95.44;100964.44;5003576;28;20060;-76
2021/05/02 00:40:36;;;;;;;25.52;19.20;;;;;;;4.99;96.13;100962.28;5002573;28;20038;-76
2021/05/02 00:43:05;;;;;;;26.45;19.13;;;;;;;4.92;96.94;100961.06;5002770;28;20038;-79
2021/05/02 00:45:45;;;;;;;27.90;18.20;;;;;;;4.89;96.97;100962.19;5004793;28;20046;-81
2021/05/02 00:48:25;;;;;;;24.92;17.83;;;;;;;4.94;95.63;100962.63;5003812;28;20495;-76
2021/05/02 00:50:58;;;;;;;25.45;17.85;;;;;;;4.94;94.96;100969.78;5012704;28;20078;-75
2021/05/02 00:53:34;;;;;;;28.67;16.27;;;;;;;4.68;98.29;100961.22;5002970;28;20072;-78
2021/05/02 00:56:12;;;;;;;27.65;19.42;;;;;;;4.82;96.01;100960.97;5001250;28;20061;-76
2021/05/02 00:58:44;;;;;;;27.83;19.13;;;;;;;4.87;95.13;100963.28;4997260;28;20107;-78
2021/05/02 01:01:20;;;;;;;26.63;18.20;;;;;;;4.81;95.63;100961.13;5002918;28;20192;-80
2021/05/02 01:03:50;;;;;;;25.55;18.08;;;;;;;4.69;96.71;100958.47;5018813;28;20394;-78
2021/05/02 01:06:22;;;;;;;23.92;16.63;;;;;;;4.70;97.00;100951.31;5002198;28;20460;-78
2021/05/02 01:08:50;;;;;;;24.95;17.13;;;;;;;4.67;97.44;100946.25;4988321;28;20041;-76
2021/05/02 01:11:17;;;;;;;25.83;17.83;;;;;;;4.67;97.02;100947.09;4985359;28;20469;-78
2021/05/02 01:13:53;;;;;;;27.85;18.23;;;;;;;4.80;95.37;100951.44;4987576;28;20046;-75
2021/05/02 01:16:22;;;;;;;22.00;13.85;;;;;;;4.61;98.46;100952.06;4980053;28;20050;-77
2021/05/02 01:18:48;;;;;;;21.67;16.15;;;;;;;4.73;96.15;100951.91;4976921;28;20046;-75
2021/05/02 01:21:14;;;;;;;21.95;15.55;;;;;;;4.56;99.14;100948.91;4975773;28;20513;-79
2021/05/02 01:23:40;;;;;;;20.77;14.07;;;;;;;4.57;98.81;100954.09;5002305;28;20030;-73
2021/05/02 01:26:07;;;;;;;28.05;14.88;;;;;;;4.55;99.87;100948.09;5000326;28;20042;-76
2021/05/02 01:28:35;;;;;;;24.27;14.57;;;;;;;4.58;99.81;100955.81;4997741;28;20050;-79
2021/05/02 01:31:00;;;;;;;23.70;17.33;;;;;;;4.65;98.68;100951.69;4999396;28;20474;-77
2021/05/02 01:33:26;;;;;;;24.67;17.50;;;;;;;4.70;97.89;100946.84;4966114;28;20045;-78
2021/05/02 01:35:52;;;;;;;25.00;16.27;;;;;;;4.73;97.49;100948.41;4997862;28;20037;-78
2021/05/02 01:38:19;;;;;;;23.88;14.77;;;;;;;4.62;99.69;100949.28;5001307;28;20033;-77
2021/05/02 01:40:45;;;;;;;25.85;17.80;;;;;;;4.77;97.59;100951.66;5003055;28;20038;-76
2021/05/02 01:43:10;;;;;;;24.25;17.08;;;;;;;4.83;96.32;100951.19;5003308;28;20088;-76
2021/05/02 01:45:36;;;;;;;22.40;15.30;;;;;;;4.71;98.48;100948.53;5002288;28;20057;-78
2021/05/02 01:48:04;;;;;;;21.58;14.77;;;;;;;4.69;98.80;100949.63;5003125;28;20080;-78
2021/05/02 01:50:49;;;;;;;23.23;13.13;;;;;;;4.71;98.47;100950.34;4997055;28;20038;-74
2021/05/02 01:53:15;;;;;;;21.75;15.15;;;;;;;4.75;97.53;100950.00;5000469;28;20046;-73
2021/05/02 01:55:41;;;;;;;21.30;14.30;;;;;;;4.80;97.86;100946.09;4999017;28;20368;-77
2021/05/02 01:58:08;;;;;;;19.55;14.77;;;;;;;4.83;97.17;100946.69;4999421;28;20076;-78
2021/05/02 02:00:40;;;;;;;18.80;13.50;;;;;;;4.87;96.94;100947.31;5002439;28;20060;-77
2021/05/02 02:03:07;;;;;;;18.50;13.35;;;;;;;4.79;98.03;100944.44;5002544;28;20057;-76
2021/05/02 02:05:34;;;;;;;18.27;12.60;;;;;;;4.88;96.81;100949.84;5002870;28;20458;-77
2021/05/02 02:08:00;;;;;;;20.33;13.80;;;;;;;4.93;96.09;100949.47;4996862;28;20038;-79
2021/05/02 02:10:26;;;;;;;18.50;12.75;;;;;;;4.89;97.26;100950.69;5000772;28;20072;-78
2021/05/02 02:12:52;;;;;;;16.80;10.70;;;;;;;4.93;97.18;100949.47;5003498;28;20050;-77
2021/05/02 02:15:18;;;;;;;17.10;12.80;;;;;;;4.95;96.47;100940.41;5004206;28;20042;-79
2021/05/02 02:17:43;;;;;;;17.85;12.30;;;;;;;4.93;96.99;100937.03;4994747;28;20050;-76
2021/05/02 02:20:10;;;;;;;15.32;10.93;;;;;;;5.00;96.95;100950.66;5011306;28;20065;-77
2021/05/02 02:22:40;;;;;;;15.93;11.13;;;;;;;5.03;96.14;100941.59;4988996;28;20092;-79
2021/05/02 02:25:08;;;;;;;18.00;12.30;;;;;;;5.07;95.50;100943.03;4999307;28;20057;-78
2021/05/02 02:27:34;;;;;;;15.75;10.15;;;;;;;5.00;96.80;100950.66;4998864;28;20060;-79
2021/05/02 02:30:03;;;;;;;16.10;10.63;;;;;;;5.04;96.25;100948.63;5008017;28;20121;-79
2021/05/02 02:32:29;;;;;;;15.82;10.25;;;;;;;5.10;95.70;100948.13;4995890;28;20050;-77
2021/05/02 02:34:56;;;;;;;17.38;10.10;;;;;;;5.12;94.84;100952.34;4999174;28;20061;-75
2021/05/02 02:37:24;;;;;;;15.77;10.02;;;;;;;5.10;95.16;100956.94;4998763;28;20042;-75
2021/05/02 02:39:57;;;;;;;14.07;10.75;;;;;;;5.12;95.11;100957.66;5006438;28;20499;-76
2021/05/02 02:42:26;;;;;;;15.68;11.40;;;;;;;5.15;95.21;100956.53;5003728;28;20046;-78
2021/05/02 02:44:57;;;;;;;;;;;;;;;5.16;95.27;100961.75;5000008;28;20464;-78
2021/05/02 02:47:34;;;;;;;14.63;9.40;;;;;;;5.10;95.67;100958.75;4997451;28;19945;-77
2021/05/02 02:50:01;;;;;;;14.30;9.95;;;;;;;5.12;96.09;100956.78;5001744;28;20046;-75
2021/05/02 02:52:28;;;;;;;10.13;8.38;;;;;;;5.16;95.14;100958.25;5002266;28;20156;-78
2021/05/02 02:55:10;;;;;;;13.35;8.88;;;;;;;5.24;94.78;100960.31;5000464;28;20058;-77
2021/05/02 02:57:45;;;;;;;13.10;8.80;;;;;;;5.27;94.74;100965.38;4994834;28;20054;-74
2021/05/02 03:00:11;;;;;;;12.70;8.07;;;;;;;5.30;94.51;100970.44;4995053;28;20060;-77
2021/05/02 03:02:38;;;;;;;11.02;7.38;;;;;;;5.32;95.32;100963.16;5003731;28;20443;-77
2021/05/02 03:05:04;;;;;;;13.55;7.65;;;;;;;5.33;94.58;100972.84;4979202;28;20050;-77
2021/05/02 03:07:33;;;;;;;12.70;7.13;;;;;;;5.36;94.67;100969.94;4995588;28;20117;-81
2021/05/02 03:10:00;;;;;;;10.03;7.17;;;;;;;5.38;94.18;100968.84;5001182;28;20053;-78
2021/05/02 03:12:27;;;;;;;9.55;6.60;;;;;;;5.40;94.54;100977.50;4999849;28;20293;-79
2021/05/02 03:14:54;;;;;;;9.52;6.32;;;;;;;5.38;95.22;100975.94;4998870;28;20046;-79
2021/05/02 03:17:29;;;;;;;13.45;6.70;;;;;;;5.44;94.31;100970.16;5007338;28;20497;-81
2021/05/02 03:20:04;;;;;;;10.93;6.15;;;;;;;5.48;93.96;100968.91;5005123;28;20438;-76
2021/05/02 03:22:52;;;;;;;11.38;6.53;;;;;;;5.48;94.43;100968.91;4996934;28;20042;-75
2021/05/02 03:25:26;;;;;;;9.52;6.07;;;;;;;5.49;93.58;100975.06;5000480;28;20054;-76
2021/05/02 03:28:00;;;;;;;8.60;5.30;;;;;;;5.51;93.24;100976.63;5001062;28;20061;-76
2021/05/02 03:30:27;;;;;;;12.02;5.22;;;;;;;5.51;93.60;100981.97;4985958;28;20045;-79
2021/05/02 03:32:54;;;;;;;7.60;5.13;;;;;;;5.53;93.10;100982.69;5000247;28;20121;-76
2021/05/02 03:35:27;;;;;;;7.50;5.05;;;;;;;5.57;92.53;100984.09;5002725;28;20220;-76
2021/05/02 03:38:06;;;;;;;9.27;5.32;;;;;;;5.60;92.21;100977.69;5001208;28;20049;-78
2021/05/02 03:40:32;;;;;;;9.32;4.90;;;;;;;5.61;92.21;100990.88;5000556;28;20088;-77
2021/05/02 03:42:58;;;;;;;7.40;4.45;;;;;;;5.58;92.44;100993.81;5008976;28;20528;-76
2021/05/02 03:45:25;;;;;;;9.27;4.53;;;;;;;5.54;92.87;100995.00;5005140;28;20495;-76
2021/05/02 03:47:50;;;;;;;6.18;3.45;;;;;;;5.51;93.69;100995.28;5003969;28;20041;-76
2021/05/02 03:50:16;;;;;;;8.63;4.13;;;;;;;5.59;92.28;100995.50;4997547;28;20149;-79
2021/05/02 03:52:41;;;;;;;9.02;4.38;;;;;;;5.64;91.59;100997.78;5013761;28;20038;-79
2021/05/02 03:55:08;;;;;;;7.63;3.70;;;;;;;5.61;92.09;101004.19;5001518;28;20050;-77
2021/05/02 03:57:35;;;;;;;6.00;3.25;;;;;;;5.59;91.86;101007.97;5003530;28;20137;-77
2021/05/02 04:00:01;;;;;;;7.82;4.00;;;;;;;5.67;90.88;101008.19;4996374;28;20050;-75
2021/05/02 04:02:26;;;;;;;7.95;4.18;;;;;;;5.69;90.52;101010.69;4998576;28;20088;-76
2021/05/02 04:04:51;;;;;;;6.57;4.07;;;;;;;5.69;90.65;101016.03;4991633;28;20050;-79
2021/05/02 04:07:17;;;;;;;7.30;3.75;;;;;;;5.68;90.64;101017.00;4995359;28;20069;-78
2021/05/02 04:09:49;;;;;;;5.97;3.13;;;;;;;5.69;90.10;101016.03;5002645;28;20053;-75
2021/05/02 04:12:14;;;;;;;6.25;3.30;;;;;;;5.68;90.25;101025.81;4993596;28;20039;-77
2021/05/02 04:14:42;;;;;;;4.25;2.65;;;;;;;5.67;90.01;101024.16;5001406;28;20058;-77
2021/05/02 04:17:10;;;;;;;8.73;2.90;;;;;;;5.69;89.68;101030.16;4997119;28;20581;-79
2021/05/02 04:19:42;;;;;;;5.18;3.25;;;;;;;5.68;89.75;101027.66;5000464;28;20399;-74
2021/05/02 04:22:08;;;;;;;9.95;2.88;;;;;;;5.64;89.68;101033.22;5002691;28;20053;-76
2021/05/02 04:24:34;;;;;;;6.20;3.00;;;;;;;5.69;89.27;101039.97;4994832;28;20130;-77
2021/05/02 04:27:02;;;;;;;8.68;3.08;;;;;;;5.70;88.91;101029.22;5025771;28;20121;-79
2021/05/02 04:29:30;;;;;;;9.30;3.33;;;;;;;5.72;88.87;101043.22;4997918;28;20049;-79
2021/05/02 04:31:57;;;;;;;6.43;2.90;;;;;;;5.74;88.41;101037.78;4999353;28;20042;-79
2021/05/02 04:34:25;;;;;;;7.38;3.40;;;;;;;5.75;88.28;101045.63;5000265;28;20092;-76
2021/05/02 04:36:52;;;;;;;6.18;2.95;;;;;;;5.75;88.43;101052.78;4999755;28;20162;-78
2021/05/02 04:39:18;;;;;;;7.80;4.13;;;;;;;5.72;88.23;101051.22;5005010;28;20048;-81
2021/05/02 04:41:45;;;;;;;7.15;2.72;;;;;;;5.75;88.49;101066.94;5000663;28;20042;-80
2021/05/02 04:44:11;;;;;;;8.05;3.28;;;;;;;5.71;88.72;101056.69;5007296;28;20042;-73
2021/05/02 04:46:38;;;;;;;7.93;3.60;;;;;;;5.72;87.70;101069.84;5004284;28;20130;-77
2021/05/02 04:49:05;;;;;;;6.97;3.20;;;;;;;5.72;87.89;101067.19;5004503;28;20145;-76
2021/05/02 04:51:31;;;;;;;7.63;3.10;;;;;;;5.75;87.62;101068.75;5005970;28;20080;-82
2021/05/02 04:54:07;;;;;;;15.82;3.55;;;;;;;5.73;87.50;101081.38;4998761;28;20164;-78
2021/05/02 04:56:38;;;;;;;9.82;3.45;;;;;;;5.74;86.88;101085.72;5000050;28;20044;-75
2021/05/02 04:59:05;;;;;;;7.22;3.13;;;;;;;5.76;87.14;101086.44;5007730;28;20445;-76
2021/05/02 05:01:31;;;;;;;6.13;2.45;;;;;;;5.72;86.97;101099.16;5002201;28;20407;-77
2021/05/02 05:04:05;;;;;;;9.00;3.40;;;;;;;5.74;86.53;101093.72;5004948;28;20046;-76
2021/05/02 05:06:31;;;;;;;6.55;2.65;;;;;;;5.78;86.21;101098.69;5003372;28;20045;-75
2021/05/02 05:08:56;;;;;;;11.15;3.00;;;;;;;5.78;85.95;101103.13;5000107;28;20038;-80
2021/05/02 05:11:21;;;;;;;7.47;3.00;;;;;;;5.79;85.73;101115.50;4987970;28;20049;-77
2021/05/02 05:13:47;;;;;;;7.85;3.17;;;;;;;5.76;85.38;101100.59;5002093;28;20057;-79
2021/05/02 05:16:14;;;;;;;6.82;2.80;;;;;;;5.77;85.54;101109.44;4998492;28;20038;-77
2021/05/02 05:18:41;;;;;;;7.75;2.78;;;;;;;5.79;85.46;101116.34;5000866;28;20053;-76
2021/05/02 05:21:06;;;;;;;10.43;2.88;;;;;;;5.75;85.34;101114.88;4992330;28;20039;-79
2021/05/02 05:23:32;;;;;;;5.40;2.85;;;;;;;5.73;84.80;101116.84;5001104;28;20216;-79
2021/05/02 05:25:58;;;;;;;7.03;2.85;;;;;;;5.75;84.73;101119.34;5001104;28;20387;-80
2021/05/02 05:28:25;;;;;;;5.32;2.63;;;;;;;5.75;84.77;101124.69;4996151;28;20520;-77
2021/05/02 05:30:55;;;;;;;6.20;3.15;;;;;;;5.75;84.85;101122.88;4997451;28;20054;-76
2021/05/02 05:33:23;;;;;;;8.77;3.38;;;;;;;5.74;84.99;101123.00;4991885;28;20050;-82
2021/05/02 05:35:48;;;;;;;7.85;3.08;;;;;;;5.77;85.09;101136.06;5003766;28;20042;-77
2021/05/02 05:38:14;;;;;;;6.30;3.10;;;;;;;5.75;85.28;101128.19;5003713;28;20056;-80
2021/05/02 05:40:40;;;;;;;7.03;3.38;;;;;;;5.76;85.13;101142.38;4996961;28;20148;-77
2021/05/02 05:43:06;;;;;;;8.60;3.30;;;;;;;5.78;85.35;101141.28;4997530;28;20443;-77
2021/05/02 05:45:32;;;;;;;8.40;3.08;;;;;;;5.71;85.12;101139.22;4998909;28;20137;-79
2021/05/02 05:47:59;;;;;;;10.45;3.60;;;;;;;5.64;85.71;101149.53;5015856;28;20132;-77
2021/05/02 05:50:25;;;;;;;9.10;3.13;;;;;;;5.60;85.88;101148.91;4995125;28;20548;-75
2021/05/02 05:52:54;;;;;;;6.13;3.30;;;;;;;5.61;86.07;101144.44;4988883;28;20054;-75
2021/05/02 05:55:20;;;;;;;10.60;3.78;;;;;;;5.58;86.04;101161.53;5001257;28;20080;-75
2021/05/02 05:57:47;;;;;;;8.15;3.65;;;;;;;5.58;86.10;101169.53;5006738;28;20682;-79
2021/05/02 06:00:14;;;;;;;10.07;4.03;;;;;;;5.58;86.05;101164.19;5001020;28;20041;-82
2021/05/02 06:02:39;;;;;;;6.38;3.40;;;;;;;5.57;85.73;101161.63;4994553;28;20044;-76
2021/05/02 06:05:06;;;;;;;6.03;3.15;;;;;;;5.63;85.88;101159.31;4984899;28;20038;-77
2021/05/02 06:07:31;;;;;;;11.25;3.08;;;;;;;5.69;86.03;101165.97;5004721;28;20073;-76
2021/05/02 06:09:57;;;;;;;5.72;3.30;;;;;;;5.76;85.60;101166.34;5006564;28;20073;-76
2021/05/02 06:12:22;;;;;;;12.27;4.20;;;;;;;5.84;84.94;101155.88;4990542;28;20680;-78
2021/05/02 06:14:48;;;;;;;11.85;3.78;;;;;;;5.92;84.66;101164.09;4999775;28;20054;-76
2021/05/02 06:17:13;;;;;;;9.70;3.90;;;;;;;5.99;84.27;101164.50;5008267;28;20050;-78
2021/05/02 06:19:39;;;;;;;9.98;2.97;;;;;;;6.07;84.23;101170.91;5006982;28;20057;-79
2021/05/02 06:22:07;;;;;;;5.13;2.65;;;;;;;6.15;83.59;101169.41;5006337;28;20077;-76
2021/05/02 06:24:32;;;;;;;7.63;2.85;;;;;;;6.25;83.36;101175.69;4999331;28;20037;-77
2021/05/02 06:26:58;;;;;;;7.38;3.30;;;;;;;6.37;83.07;101169.31;5015951;28;20046;-78
2021/05/02 06:29:23;;;;;;;8.05;3.42;;;;;;;6.46;81.70;101168.56;4998661;28;20101;-73
2021/05/02 06:31:49;;;;;;;7.95;3.38;;;;;;;6.51;81.14;101171.69;5011103;28;20042;-76
2021/05/02 06:34:14;;;;;;;7.20;3.03;;;;;;;6.54;81.02;101173.25;5002629;28;20111;-78
2021/05/02 06:36:41;;;;;;;5.40;2.83;;;;;;;6.62;81.11;101180.59;4994742;28;20056;-78
2021/05/02 06:39:08;;;;;;;6.57;2.90;;;;;;;6.67;80.63;101179.22;4998612;28;20046;-80
2021/05/02 06:41:34;;;;;;;7.03;2.83;;;;;;;6.75;80.07;101178.59;4979700;28;20037;-78
2021/05/02 06:44:01;;;;;;;8.85;3.25;;;;;;;6.78;80.06;101179.16;5003179;28;20053;-79
2021/05/02 06:46:28;;;;;;;4.65;2.50;;;;;;;6.86;79.64;101175.84;4999427;28;20143;-78
2021/05/02 06:48:59;;;;;;;9.60;3.00;;;;;;;6.92;79.26;101175.31;5001029;28;20034;-73
2021/05/02 06:51:24;;;;;;;6.30;3.00;;;;;;;6.99;78.38;101171.19;5000382;28;20833;-80
2021/05/02 06:53:50;;;;;;;4.22;2.50;;;;;;;7.07;78.32;101164.31;5001475;28;20137;-77
2021/05/02 06:56:16;;;;;;;7.38;2.80;;;;;;;7.14;77.41;101174.34;5001659;28;20391;-79
2021/05/02 06:58:41;;;;;;;4.70;2.40;;;;;;;7.13;76.67;101171.78;5003303;28;20042;-80
2021/05/02 07:01:07;;;;;;;8.25;2.90;;;;;;;7.21;76.65;101169.31;5005613;28;20037;-82
2021/05/02 07:03:32;;;;;;;5.88;2.65;;;;;;;7.36;76.80;101167.13;5005033;28;20096;-77
2021/05/02 07:05:58;;;;;;;5.03;2.65;;;;;;;7.42;75.83;101178.13;4991476;28;20044;-78
2021/05/02 07:08:24;;;;;;;7.20;2.85;;;;;;;7.41;74.73;101176.41;4996878;28;20046;-79
2021/05/02 07:10:50;;;;;;;5.80;2.60;;;;;;;7.44;75.24;101183.31;4986217;28;20065;-82
2021/05/02 07:13:16;;;;;;;4.68;2.58;;;;;;;7.42;74.79;101185.28;5000843;28;20139;-76
2021/05/02 07:15:42;;;;;;;6.22;2.83;;;;;;;7.42;74.49;101182.59;5001033;28;20065;-76
2021/05/02 07:18:08;;;;;;;10.55;2.95;;;;;;;7.51;74.88;101181.81;5002753;28;20037;-77
2021/05/02 07:20:35;;;;;;;6.47;2.58;;;;;;;7.51;74.23;101186.28;4999134;28;20038;-76
2021/05/02 07:23:01;;;;;;;4.75;2.65;;;;;;;7.54;74.97;101194.91;4998838;28;20041;-74
2021/05/02 07:25:28;;;;;;;5.70;2.63;;;;;;;7.69;74.93;101195.38;5001480;28;20053;-77
2021/05/02 07:27:54;;;;;;;7.03;2.65;;;;;;;7.78;73.85;101193.72;4999927;28;20050;-74
2021/05/02 07:30:21;;;;;;;8.30;2.85;;;;;;;7.71;72.93;101201.44;5005009;28;20049;-82
2021/05/02 07:32:47;;;;;;;4.97;2.20;;;;;;;7.73;73.19;101207.47;5005861;28;20184;-77
2021/05/02 07:35:13;;;;;;;5.03;2.63;;;;;;;7.91;72.74;101208.53;5021856;28;20129;-77
2021/05/02 07:37:38;;;;;;;7.75;3.45;;;;;;;7.93;71.91;101210.19;4999442;28;20509;-79
2021/05/02 07:40:07;;;;;;;5.20;2.22;;;;;;;7.91;71.89;101203.19;4998255;28;20575;-76
2021/05/02 07:42:32;;;;;;;5.10;2.38;;;;;;;8.00;71.36;101193.50;5016001;28;20184;-78
2021/05/02 07:44:58;;;;;;;7.50;2.50;;;;;;;8.03;71.87;101203.91;5008846;28;20128;-78
2021/05/02 07:47:23;;;;;;;6.97;2.58;;;;;;;8.05;71.05;101198.41;5005530;28;20053;-82
2021/05/02 07:49:49;;;;;;;5.82;2.50;;;;;;;8.10;71.73;101206.84;5019066;28;20042;-82
2021/05/02 07:52:15;;;;;;;7.55;2.80;;;;;;;8.15;70.80;101201.94;4995176;28;20495;-77
2021/05/02 07:54:42;;;;;;;8.07;2.60;;;;;;;8.11;70.65;101206.72;4998387;28;20050;-75
2021/05/02 07:57:10;;;;;;;4.60;2.40;;;;;;;8.09;71.25;101205.19;5002091;28;20046;-76
2021/05/02 07:59:39;;;;;;;5.57;2.70;;;;;;;8.07;71.58;101210.66;5006082;28;20731;-75
2021/05/02 08:02:09;;;;;;;5.93;2.60;;;;;;;8.23;71.81;101202.09;5001568;28;20109;-81
2021/05/02 08:04:39;;;;;;;8.05;3.00;;;;;;;8.38;71.22;101199.03;5000044;28;20061;-77
2021/05/02 08:07:06;;;;;;;6.18;2.50;;;;;;;8.38;70.01;101205.22;4994076;28;20045;-74
2021/05/02 08:09:33;;;;;;;7.10;2.60;;;;;;;8.22;68.28;101208.41;5001196;28;20092;-78
2021/05/02 08:11:59;;;;;;;7.07;2.40;;;;;;;8.17;68.73;101210.69;5005690;28;20111;-79
2021/05/02 08:14:25;;;;;;;6.93;2.42;;;;;;;8.12;68.07;101212.91;5011761;28;20049;-78
2021/05/02 08:16:50;;;;;;;5.35;2.25;;;;;;;8.11;69.29;101219.22;5003755;28;20043;-77
2021/05/02 08:19:18;;;;;;;6.72;2.40;;;;;;;8.22;68.71;101216.44;4977057;28;20614;-77
2021/05/02 08:21:43;;;;;;;3.90;2.10;;;;;;;8.34;68.42;101214.47;4996464;28;20049;-74
2021/05/02 08:24:11;;;;;;;4.40;2.53;;;;;;;8.45;68.07;101218.88;4999747;28;20041;-77
2021/05/02 08:26:37;;;;;;;5.57;2.65;;;;;;;8.39;67.40;101219.44;5000483;28;20045;-80
2021/05/02 08:29:02;;;;;;;5.85;2.97;;;;;;;8.32;67.80;101214.63;4999872;28;20073;-77
2021/05/02 08:31:28;;;;;;;5.18;2.22;;;;;;;8.32;67.75;101225.31;4996959;28;20046;-79
2021/05/02 08:33:54;;;;;;;3.95;1.95;;;;;;;8.43;66.37;101208.34;5005841;28;20520;-81
2021/05/02 08:36:19;;;;;;;7.75;2.35;;;;;;;8.70;66.20;101207.63;5000629;28;20053;-79
2021/05/02 08:38:45;;;;;;;3.83;2.00;;;;;;;8.74;64.85;101224.22;5003927;28;20042;-80
2021/05/02 08:41:10;;;;;;;5.15;1.98;;;;;;;8.63;64.02;101222.56;5004182;28;20133;-77
2021/05/02 08:43:36;;;;;;;4.57;2.03;;;;;;;8.51;65.75;101227.19;4992185;28;20077;-80
2021/05/02 08:46:03;;;;;;;4.38;2.78;;;;;;;8.48;67.29;101231.97;4991670;28;20042;-79
2021/05/02 08:48:28;;;;;;;6.78;2.70;;;;;;;8.43;68.57;101235.09;4996453;28;20046;-80
2021/05/02 08:50:56;;;;;;;4.25;2.47;;;;;;;8.40;69.08;101231.81;5001991;28;20050;-76
2021/05/02 08:53:24;;;;;;;6.90;2.95;;;;;;;8.30;68.82;101229.97;5003956;28;20085;-79
2021/05/02 08:55:50;;;;;;;5.63;2.72;;;;;;;8.26;69.85;101230.41;4987565;28;20137;-79
2021/05/02 08:58:20;;;;;;;4.50;2.33;;;;;;;8.38;69.17;101228.44;5008471;28;20441;-79
2021/05/02 09:00:46;;;;;;;5.50;2.45;;;;;;;8.55;68.10;101225.94;5000862;28;20050;-82
2021/05/02 09:03:13;;;;;;;4.30;2.10;;;;;;;8.81;66.98;101226.22;5005296;28;20038;-81
2021/05/02 09:05:47;;;;;;;4.97;2.20;;;;;;;9.04;65.57;101226.75;4997357;28;20046;-78
2021/05/02 09:08:34;;;;;;;5.38;2.30;;;;;;;9.00;64.77;101230.69;4996474;28;20102;-83
2021/05/02 09:11:03;;;;;;;4.88;2.20;;;;;;;8.92;64.29;101225.22;5002611;28;20069;-81
2021/05/02 09:13:29;;;;;;;4.35;2.17;;;;;;;8.84;65.48;101230.44;5001698;28;20053;-80
2021/05/02 09:16:05;;;;;;;5.72;2.33;;;;;;;8.79;66.63;101236.19;4997210;28;20101;-76
2021/05/02 09:19:00;;;;;;;5.50;2.00;;;;;;;8.71;65.44;101241.41;4999385;28;20048;-82
2021/05/02 09:21:31;;;;;;;3.65;1.88;;;;;;;8.66;66.67;101227.63;4998428;28;20046;-79
2021/05/02 09:23:59;;;;;;;4.10;2.10;;;;;;;8.68;66.27;101233.66;4999982;28;20504;-75
2021/05/02 09:26:31;;;;;;;5.07;2.00;;;;;;;8.78;66.53;101229.16;5002445;28;20041;-83
2021/05/02 09:28:59;;;;;;;4.00;2.17;;;;;;;8.96;66.10;101240.00;5000100;28;20046;-79
2021/05/02 09:31:30;;;;;;;5.43;2.10;;;;;;;9.22;65.54;101228.69;4984614;28;20394;-78
2021/05/02 09:34:13;;;;;;;3.85;2.00;;;;;;;9.26;63.09;101224.72;5001316;28;20073;-79
2021/05/02 09:37:03;;;;;;;2.72;1.80;;;;;;;9.21;63.68;101222.47;5006772;28;20053;-83
2021/05/02 09:39:36;;;;;;;3.50;1.77;;;;;;;9.13;63.91;101241.09;5006480;28;20046;-78
2021/05/02 09:42:08;;;;;;;4.63;1.75;;;;;;;9.12;62.91;101233.19;5013395;28;20054;-79
2021/05/02 09:44:38;;;;;;;4.70;1.70;;;;;;;8.98;62.71;101247.91;5014087;28;20045;-77
2021/05/02 09:47:18;;;;;;;4.38;2.20;;;;;;;8.89;62.91;101246.06;5005524;28;20053;-82
2021/05/02 09:50:06;;;;;;;7.07;1.92;;;;;;;8.77;64.03;101254.22;5013970;28;20046;-83
2021/05/02 09:53:03;;;;;;;4.90;1.70;;;;;;;8.71;65.58;101252.13;4997946;28;20057;-79
2021/05/02 09:55:32;;;;;;;5.07;2.13;;;;;;;8.72;65.42;101256.50;4998152;28;20051;-81
2021/05/02 09:57:59;;;;;;;;;;;;;;;8.75;66.00;101253.53;5005339;28;20065;-79
2021/05/02 10:00:50;;;;;;;4.22;1.83;;;;;;;8.77;65.53;101253.38;4994913;28;19914;-82
2021/05/02 10:03:17;;;;;;;3.40;1.70;;;;;;;8.87;64.03;101253.41;5003148;28;20058;-87
2021/05/02 10:06:01;;;;;;;4.47;2.00;;;;;;;8.88;63.74;101265.78;4996768;28;20045;-79
2021/05/02 10:08:32;;;;;;;3.13;1.42;;;;;;;9.12;61.97;101262.66;5003572;28;20105;-81
2021/05/02 10:11:00;;;;;;;3.53;1.30;;;;;;;9.40;59.92;101259.06;5000088;28;20049;-78
2021/05/02 10:13:27;;;;;;;4.20;1.52;;;;;;;9.58;59.20;101261.84;5004138;28;20049;-80
2021/05/02 10:15:53;;;;;;;5.43;1.83;;;;;;;9.53;59.52;101257.94;4998032;28;20053;-80
2021/05/02 10:18:19;;;;;;;5.10;1.70;;;;;;;9.46;60.23;101249.59;4996392;28;20547;-78
2021/05/02 10:20:47;;;;;;;2.78;1.42;;;;;;;9.35;61.69;101261.34;5001719;28;20038;-81
2021/05/02 10:23:14;;;;;;;3.05;1.40;;;;;;;9.19;61.36;101269.97;5001901;28;20038;-78
2021/05/02 10:25:46;;;;;;;3.55;1.50;;;;;;;9.11;61.88;101266.31;4996448;28;20049;-81
2021/05/02 10:28:34;;;;;;;3.05;1.85;;;;;;;9.03;62.42;101261.69;4987931;28;20050;-77
2021/05/02 10:31:02;;;;;;;5.10;1.70;;;;;;;9.21;62.09;101267.16;5003298;28;20141;-81
2021/05/02 10:33:32;;;;;;;3.83;1.70;;;;;;;9.43;61.33;101248.06;5009254;28;20133;-80
2021/05/02 10:36:19;;;;;;;5.95;1.63;;;;;;;9.48;61.08;101248.47;5002371;28;20510;-83
2021/05/02 10:38:51;;;;;;;3.42;1.27;;;;;;;9.44;58.99;101252.44;5007563;28;20054;-78
2021/05/02 10:41:26;;;;;;;4.60;1.65;;;;;;;9.46;57.43;101257.63;5011013;28;20050;-79
2021/05/02 10:43:53;;;;;;;2.85;1.35;;;;;;;9.44;56.52;101248.94;5001607;28;20058;-79
2021/05/02 10:46:43;;;;;;;3.30;1.38;;;;;;;9.57;54.41;101254.78;5001249;28;20607;-81
2021/05/02 10:49:30;;;;;;;3.60;1.70;;;;;;;9.79;55.22;101252.75;5034602;28;20172;-80
2021/05/02 10:51:57;;;;;;;2.83;1.58;;;;;;;10.03;55.17;101255.72;5019703;28;20056;-80
2021/05/02 10:54:40;;;;;;;2.47;1.10;;;;;;;10.16;55.20;101242.81;5006468;28;20049;-80
2021/05/02 10:57:05;;;;;;;2.20;1.30;;;;;;;10.11;56.72;101247.78;5017908;28;20050;-79
2021/05/02 10:59:55;;;;;;;3.25;1.40;;;;;;;10.15;53.63;101261.72;5009351;28;20040;-85
2021/05/02 11:02:37;;;;;;;3.05;1.17;;;;;;;10.06;53.87;101259.94;5022275;28;20446;-82
2021/05/02 11:05:03;;;;;;;3.20;1.40;;;;;;;9.91;53.84;101270.31;5005590;28;20108;-82
2021/05/02 11:07:58;;;;;;;3.30;1.20;;;;;;;9.90;55.38;101260.59;5009898;28;20438;-82
2021/05/02 11:10:24;;;;;;;3.03;1.23;;;;;;;9.89;55.75;101265.09;5002124;28;20153;-85
2021/05/02 11:12:50;;;;;;;3.83;1.35;;;;;;;9.87;55.41;101258.22;4989621;28;20080;-77
2021/05/02 11:15:32;;;;;;;3.90;1.30;;;;;;;9.75;56.36;101278.13;5000073;28;20049;-79
2021/05/02 11:17:58;;;;;;;2.90;1.27;;;;;;;9.67;56.16;101281.56;5007926;28;20554;-81
2021/05/02 11:20:46;;;;;;;3.28;1.33;;;;;;;9.68;56.43;101297.50;5004909;28;20049;-75
2021/05/02 11:23:11;;;;;;;4.22;1.15;;;;;;;9.65;57.47;101291.59;5006491;28;20030;-82
2021/05/02 11:25:41;;;;;;;3.25;1.42;;;;;;;9.66;57.28;101285.22;5005613;28;20049;-78
2021/05/02 11:28:11;;;;;;;6.10;1.67;;;;;;;9.70;56.75;101295.50;5000027;28;20068;-83
2021/05/02 11:30:45;;;;;;;;;;;;;;;9.78;54.98;101288.56;5005936;28;20038;-80
2021/05/02 11:33:32;;;;;;;4.90;1.98;;;;;;;9.88;54.27;101286.69;5001403;28;19921;-80
2021/05/02 11:35:58;;;;;;;3.28;1.83;;;;;;;9.95;55.11;101285.09;4986585;28;20050;-78
2021/05/02 11:38:38;;;;;;;3.25;1.40;;;;;;;9.94;54.27;101286.09;4986613;28;20046;-76